Latest Weather Observations for Cloncurry

IDQ60801

Issued at 2:51 pm EST Wednesday 19 June 2019 (issued every 10 minutes, with the page automatically refreshed every 10 minutes)

About weather observations | Map of weather stations | Latest weather observations for QLD | Other Formats
Station Details ID: 029141 Name: CLONCURRY AIRPORT Lat: -20.67 Lon: 140.50 Height: 186.0 m
Data from the previous 72 hours. | See also: Recent months at Cloncurry
Date/Time
EST
Temp
°C
App
Temp
°C
Dew
Point
°C
Rel
Hum
%
Delta-T
°C
Wind Press
QNH
hPa
Press
MSL
hPa
Rain since
9am
mm
Dir  Spd
km/h
Gust
km/h
Spd
kts
Gust
kts
19/02:30pm 22.0 16.6 -1.3 21 10.3 SE 17 26 9 14 1017.5 1017.0 -
19/02:00pm 21.8 16.1 -0.8 22 10.1 SSE 19 24 10 13 1018.0 1017.6 -
19/01:30pm 21.5 15.6 -0.5 23 9.8 SSE 20 32 11 17 1018.3 1017.9 -
19/01:00pm 20.7 14.5 -0.6 24 9.4 SE 22 30 12 16 1019.2 1018.7 -
19/12:30pm 20.5 13.5 -0.7 24 9.4 SE 26 33 14 18 1019.6 1019.1 -
19/12:00pm 20.2 13.7 0.1 26 9.0 ESE 24 33 13 18 1020.1 1019.6 -
19/11:30am 19.9 12.3 0.4 27 8.8 ESE 30 35 16 19 1020.2 1019.7 -
19/11:00am 19.1 11.8 -0.3 27 8.5 SE 28 37 15 20 1020.7 1020.2 -
19/10:30am 18.7 11.4 0.3 29 8.2 SE 28 33 15 18 1020.9 1020.4 -
19/10:00am 17.2 12.2 1.2 34 7.1 S 17 24 9 13 1021.2 1020.7 -
19/09:00am 14.5 8.9 1.1 40 5.8 S 20 26 11 14 1021.0 1020.5 0.0
19/08:30am 12.6 8.3 1.3 46 4.9 S 13 17 7 9 1020.8 1020.3 0.0
19/08:00am 10.7 6.8 1.0 51 4.0 S 11 15 6 8 1020.6 1020.1 0.0
19/07:30am 9.1 4.8 0.8 56 3.4 S 13 15 7 8 1020.1 1019.6 0.0
19/07:00am 8.2 4.1 0.0 56 3.3 S 11 13 6 7 1020.1 1019.6 0.0
19/06:30am 9.0 4.6 0.5 55 3.5 S 13 15 7 8 1020.1 1019.6 0.0
19/06:00am 9.4 5.4 0.3 53 3.7 SSW 11 15 6 8 1020.1 1019.6 0.0
19/05:30am 9.6 5.6 0.5 53 3.7 SSW 11 15 6 8 1019.7 1019.2 0.0
19/05:00am 9.9 5.5 0.3 51 3.9 SSW 13 15 7 8 1019.7 1019.2 0.0
19/04:30am 10.0 5.9 0.1 50 4.0 SSW 11 13 6 7 1019.7 1019.2 0.0
19/04:00am 10.4 5.9 -0.1 48 4.3 SSW 13 15 7 8 1019.7 1019.2 0.0
19/03:30am 11.2 6.7 0.0 46 4.6 SSW 13 17 7 9 1019.8 1019.3 0.0
19/03:00am 11.3 6.9 0.1 46 4.6 S 13 17 7 9 1019.9 1019.4 0.0
19/02:30am 12.0 7.5 -0.2 43 5.0 S 13 17 7 9 1020.0 1019.5 0.0
19/02:00am 12.9 8.1 0.0 41 5.4 S 15 19 8 10 1020.0 1019.5 0.0
19/01:30am 13.2 7.9 -0.4 39 5.7 S 17 20 9 11 1020.1 1019.6 0.0
19/01:00am 13.5 8.2 -0.5 38 5.8 S 17 20 9 11 1020.5 1020.0 0.0
19/12:30am 13.8 8.5 -0.6 37 6.0 S 17 22 9 12 1020.6 1020.1 0.0
19/12:00am 13.9 8.6 -0.9 36 6.1 S 17 22 9 12 1020.5 1020.0 0.0
 
Date/Time
EST
Temp
°C
App
Temp
°C
Dew
Point
°C
Rel
Hum
%
Delta-T
°C
Wind Press
QNH
hPa
Press
MSL
hPa
Rain since
9am
mm
Dir  Spd
km/h
Gust
km/h
Spd
kts
Gust
kts
18/11:30pm 13.6 8.3 -0.4 38 5.8 SSW 17 20 9 11 1020.6 1020.1 0.0
18/11:00pm 13.7 8.8 -0.3 38 5.8 S 15 17 8 9 1020.6 1020.1 0.0
18/10:30pm 13.0 8.4 -1.3 37 5.8 S 13 15 7 8 1020.6 1020.1 0.0
18/10:00pm 13.9 8.9 -0.9 36 6.1 S 15 17 8 9 1020.6 1020.1 0.0
18/09:30pm 13.4 8.8 -1.3 36 6.0 S 13 15 7 8 1020.5 1020.0 0.0
18/09:00pm 14.2 9.9 -1.8 33 6.5 S 11 13 6 7 1020.6 1020.1 0.0
18/08:30pm 14.8 10.5 -1.7 32 6.8 S 11 13 6 7 1020.4 1019.9 0.0
18/08:00pm 15.7 10.6 -1.8 30 7.2 SSE 15 17 8 9 1020.1 1019.6 0.0
18/07:30pm 17.3 12.2 -1.9 27 8.0 S 15 17 8 9 1019.8 1019.3 0.0
18/07:00pm 18.0 12.9 -1.8 26 8.3 S 15 19 8 10 1019.6 1019.1 0.0
18/06:30pm 19.0 13.5 -2.0 24 8.9 S 17 22 9 12 1019.3 1018.8 0.0
18/06:00pm 20.2 14.1 -2.2 22 9.6 SSW 20 26 11 14 1018.9 1018.5 0.0
18/05:30pm 21.4 15.4 -1.8 21 10.1 SSW 20 30 11 16 1018.5 1018.1 0.0
18/05:00pm 22.2 16.2 -1.8 20 10.5 S 20 24 11 13 1018.1 1017.7 0.0
18/04:30pm 22.3 15.4 -2.4 19 10.7 S 24 30 13 16 1017.8 1017.3 0.0
18/04:00pm 22.7 15.7 -3.6 17 11.2 S 24 33 13 18 1017.6 1017.1 0.0
18/03:30pm 22.2 16.2 -3.2 18 10.8 SSE 19 26 10 14 1017.6 1017.1 0.0
18/03:00pm 22.3 15.4 -2.4 19 10.7 SSE 24 32 13 17 1017.6 1017.1 0.0
18/02:30pm 22.4 16.3 -2.3 19 10.7 S 20 32 11 17 1018.0 1017.6 0.0
18/02:00pm 22.2 15.4 -1.8 20 10.5 S 24 35 13 19 1018.4 1018.0 0.0
18/01:30pm 22.2 15.4 -1.8 20 10.5 S 24 33 13 18 1018.9 1018.5 0.0
18/01:00pm 21.4 14.2 -1.8 21 10.1 SSW 26 35 14 19 1019.7 1019.2 0.0
18/12:30pm 21.0 14.2 -1.5 22 9.8 S 24 35 13 19 1020.3 1019.8 0.0
18/12:00pm 21.0 14.2 -1.5 22 9.8 S 24 35 13 19 1020.7 1020.2 0.0
18/11:30am 20.4 13.0 -0.8 24 9.3 S 28 37 15 20 1021.0 1020.5 0.0
18/11:00am 19.9 12.8 -1.2 24 9.1 S 26 33 14 18 1021.2 1020.7 0.0
18/10:30am 19.6 12.2 -0.4 26 8.8 S 28 37 15 20 1021.4 1020.9 0.0
18/10:00am 19.2 12.6 -0.2 27 8.5 SSE 24 32 13 17 1021.5 1021.0 0.0
18/09:30am 16.8 11.2 0.0 32 7.3 S 19 24 10 13 1021.5 1021.0 0.0
18/09:00am 14.2 9.0 0.1 38 6.0 SSW 17 20 9 11 1021.3 1020.8 0.0
18/08:30am 12.8 8.4 0.2 42 5.3 SSW 13 17 7 9 1021.1 1020.6 0.0
18/08:00am 10.4 6.4 0.4 50 4.1 S 11 11 6 6 1020.7 1020.2 0.0
18/07:30am 8.6 4.8 -0.4 53 3.6 S 9 11 5 6 1020.4 1019.9 0.0
18/07:00am 7.7 3.2 -0.5 56 3.2 S 13 15 7 8 1020.2 1019.7 0.0
18/06:30am 8.2 4.0 -0.8 53 3.5 S 11 13 6 7 1020.1 1019.6 0.0
18/06:00am 9.1 4.9 -0.8 50 3.9 SSE 11 13 6 7 1019.9 1019.4 0.0
18/05:30am 10.5 6.0 0.0 48 4.3 SSW 13 19 7 10 1019.9 1019.4 0.0
18/05:00am 10.1 5.3 0.4 51 4.0 SSW 15 17 8 9 1019.9 1019.4 0.0
18/04:30am 9.6 5.1 -0.6 49 4.1 SSW 13 15 7 8 1019.8 1019.3 0.0
18/04:00am 10.3 5.7 -0.8 46 4.4 SSW 13 13 7 7 1020.0 1019.5 0.0
18/03:30am 11.0 6.8 -1.1 43 4.8 SSW 11 13 6 7 1019.9 1019.4 0.0
18/03:00am 12.0 7.0 -1.2 40 5.3 SSW 15 19 8 10 1019.7 1019.2 0.0
18/02:30am 12.3 7.0 -0.9 40 5.4 SSW 17 20 9 11 1019.9 1019.4 0.0
18/02:00am 11.7 6.7 -1.1 41 5.1 SSW 15 17 8 9 1020.0 1019.5 0.0
18/01:30am 11.8 6.8 -1.0 41 5.2 SSW 15 19 8 10 1020.1 1019.6 0.0
18/01:00am 11.8 7.2 -1.0 41 5.2 SSW 13 15 7 8 1020.0 1019.5 0.0
18/12:30am 11.5 7.0 -0.6 43 4.9 SSW 13 15 7 8 1020.0 1019.5 0.0
18/12:00am 11.6 6.6 -0.9 42 5.0 S 15 15 8 8 1020.2 1019.7 0.0
 
Date/Time
EST
Temp
°C
App
Temp
°C
Dew
Point
°C
Rel
Hum
%
Delta-T
°C
Wind Press
QNH
hPa
Press
MSL
hPa
Rain since
9am
mm
Dir  Spd
km/h
Gust
km/h
Spd
kts
Gust
kts
17/11:30pm 11.7 7.1 -1.1 41 5.2 S 13 13 7 7 1020.3 1019.8 0.0
17/11:00pm 12.5 8.3 -1.1 39 5.5 S 11 13 6 7 1020.3 1019.8 0.0
17/10:30pm 12.8 8.5 -1.5 37 5.8 S 11 13 6 7 1020.3 1019.8 0.0
17/10:00pm 13.9 9.5 -2.1 33 6.4 S 11 13 6 7 1020.3 1019.8 0.0
17/09:30pm 14.5 10.2 -2.0 32 6.7 S 11 13 6 7 1020.4 1019.9 0.0
17/09:00pm 15.1 10.0 -2.3 30 7.0 S 15 17 8 9 1020.4 1019.9 0.0
17/08:30pm 15.3 10.5 -2.2 30 7.1 S 13 13 7 7 1020.2 1019.7 0.0
17/08:00pm 16.1 11.3 -2.9 27 7.7 SSW 13 15 7 8 1019.8 1019.3 0.0
17/07:30pm 16.9 12.8 -3.2 25 8.2 SSW 9 11 5 6 1019.2 1018.7 0.0
17/07:00pm 18.3 13.7 -3.8 22 9.0 SSW 11 15 6 8 1018.6 1018.2 0.0
17/06:30pm 20.4 14.7 -4.0 19 10.1 SSW 17 20 9 11 1018.2 1017.8 0.0
17/06:00pm 21.5 15.7 -4.5 17 10.7 SSW 17 22 9 12 1017.9 1017.5 0.0
17/05:30pm 22.8 16.7 -3.5 17 11.2 SSW 19 24 10 13 1017.8 1017.3 0.0
17/05:00pm 23.5 16.7 -2.2 18 11.3 SSW 24 30 13 16 1017.6 1017.1 0.0
17/04:30pm 24.0 17.2 1.0 22 10.8 SW 26 33 14 18 1017.4 1016.9 0.0
17/04:00pm 24.5 18.3 2.0 23 10.8 SW 24 32 13 17 1017.3 1016.8 0.0
17/03:30pm 24.6 18.3 1.5 22 11.0 SSW 24 32 13 17 1017.4 1016.9 0.0
17/03:00pm 25.0 19.6 2.4 23 11.0 SSW 20 30 11 16 1017.4 1016.9 0.0
17/02:30pm 24.6 18.9 2.7 24 10.7 SSW 22 33 12 18 1017.9 1017.5 0.0
17/02:00pm 23.8 19.0 2.6 25 10.2 SW 17 24 9 13 1018.4 1018.0 0.0
17/01:30pm 24.0 19.7 3.3 26 10.1 SW 15 26 8 14 1019.0 1018.6 0.0
17/01:00pm 23.2 19.7 3.7 28 9.5 S 11 17 6 9 1019.6 1019.1 0.0
17/12:30pm 22.8 18.7 4.3 30 9.2 SSW 15 20 8 11 1020.3 1019.8 0.0
17/12:00pm 22.0 18.5 3.6 30 8.9 S 11 17 6 9 1020.8 1020.3 0.0
17/11:30am 21.1 17.2 3.3 31 8.5 SSE 13 20 7 11 1021.3 1020.8 0.0
17/11:00am 20.7 16.8 3.4 32 8.3 SSE 13 20 7 11 1021.6 1021.1 0.0
17/10:30am 19.3 15.4 3.5 35 7.5 SSE 13 19 7 10 1021.9 1021.4 0.0
17/10:00am 17.9 13.7 3.8 39 6.6 S 15 19 8 10 1022.0 1021.5 0.0
17/09:30am 17.1 13.2 3.4 40 6.4 SSW 13 20 7 11 1022.1 1021.6 0.0
17/09:00am 16.1 12.2 3.5 43 5.8 SSW 13 17 7 9 1021.9 1021.4 0.0
17/08:30am 14.6 10.8 3.7 48 5.0 SSW 13 20 7 11 1021.6 1021.1 0.0
17/08:00am 13.5 10.1 4.1 53 4.3 SSE 11 13 6 7 1021.2 1020.7 0.0
17/07:30am 13.0 9.9 3.7 53 4.2 SSE 9 13 5 7 1020.9 1020.4 0.0
17/07:00am 13.3 9.8 3.7 52 4.4 S 11 13 6 7 1020.6 1020.1 0.0
17/06:30am 13.7 9.5 4.0 52 4.5 SSW 15 22 8 12 1020.0 1019.5 0.0
17/06:00am 13.5 9.7 4.1 53 4.3 SSW 13 19 7 10 1019.8 1019.3 0.0
17/05:30am 13.7 10.4 4.3 53 4.4 SSW 11 15 6 8 1019.6 1019.1 0.0
17/05:00am 14.4 11.1 4.4 51 4.7 S 11 15 6 8 1019.6 1019.1 0.0
17/04:30am 14.9 10.8 4.6 50 4.8 SSW 15 17 8 9 1019.5 1019.0 0.0
17/04:00am 16.0 11.2 4.7 47 5.4 SSW 19 28 10 15 1019.4 1018.9 0.0
17/03:30am 16.2 11.8 4.9 47 5.4 SSW 17 20 9 11 1019.3 1018.8 0.0
17/03:00am 16.6 11.8 4.6 45 5.7 S 19 22 10 12 1019.3 1018.8 0.0
17/02:30am 17.0 12.1 5.0 45 5.8 S 20 26 11 14 1019.3 1018.8 0.0
17/02:00am 17.2 12.5 5.2 45 5.8 S 19 28 10 15 1019.5 1019.0 0.0
17/01:30am 17.7 12.5 5.6 45 5.9 S 22 30 12 16 1019.5 1019.0 0.0
17/01:00am 18.3 13.3 6.5 46 5.9 S 22 30 12 16 1019.7 1019.2 0.0
17/12:30am 18.8 13.6 7.3 47 5.9 S 24 33 13 18 1019.6 1019.1 0.0
17/12:00am 19.3 13.9 8.0 48 5.9 S 26 33 14 18 1019.8 1019.3 0.0
 
Date/Time
EST
Temp
°C
App
Temp
°C
Dew
Point
°C
Rel
Hum
%
Delta-T
°C
Wind Press
QNH
hPa
Press
MSL
hPa
Rain since
9am
mm
Dir  Spd
km/h
Gust
km/h
Spd
kts
Gust
kts
16/11:30pm 19.7 15.4 9.3 51 5.5 S 22 30 12 16 1019.9 1019.4 0.0
16/11:00pm 20.1 16.0 10.2 53 5.4 S 22 30 12 16 1020.0 1019.5 0.0
16/10:30pm 20.4 16.8 10.5 53 5.4 SSW 20 28 11 15 1019.8 1019.3 0.0
16/10:00pm 20.7 17.3 10.5 52 5.6 SSW 19 24 10 13 1019.7 1019.2 0.0
16/09:30pm 21.2 17.6 10.4 50 5.9 SSW 20 26 11 14 1019.5 1019.0 0.0
16/09:00pm 21.1 18.0 9.0 46 6.5 SSW 15 20 8 11 1019.3 1018.8 0.0
16/08:30pm 21.6 18.5 8.8 44 6.8 SSW 15 17 8 9 1018.9 1018.5 0.0
16/08:00pm 21.9 19.1 8.4 42 7.2 SSW 13 17 7 9 1018.5 1018.1 0.0
16/07:30pm 23.4 19.4 8.3 38 8.1 S 19 20 10 11 1018.1 1017.7 0.0
16/07:00pm 22.8 19.5 6.6 35 8.4 S 13 15 7 8 1017.8 1017.3 0.0
16/06:30pm 25.1 21.9 6.8 31 9.6 SE 13 17 7 9 1017.4 1016.9 0.0
16/06:00pm 26.1 22.5 6.7 29 10.2 SE 15 19 8 10 1017.0 1016.5 0.0
16/05:30pm 26.9 23.2 6.3 27 10.9 SSE 15 24 8 13 1016.8 1016.3 0.0
16/05:00pm 27.4 24.1 6.2 26 11.2 SE 13 24 7 13 1016.6 1016.1 0.0
16/04:30pm 27.4 23.3 6.2 26 11.2 SE 17 22 9 12 1016.6 1016.1 0.0
16/04:00pm 27.8 24.2 6.6 26 11.3 S 15 22 8 12 1016.5 1016.0 0.0
16/03:30pm 27.5 22.9 6.3 26 11.2 SSE 20 28 11 15 1016.4 1015.9 0.0
16/03:00pm 27.4 23.3 6.2 26 11.2 SE 17 24 9 13 1016.7 1016.2 0.0

Other formats

Comma delimited format used in spreadsheet applications
http://www.bom.gov.au/fwo/IDQ60801/IDQ60801.94335.axf

JavaScript Object Notation format (JSON) in row-major order
http://www.bom.gov.au/fwo/IDQ60801/IDQ60801.94335.json

Data quality

Most of these data are generated automatically and are frequently updated. Quality checks on data are not normally performed. It is possible for incorrect values to appear. Refer to information at About Latest Weather Observations and please check the disclaimer before using these data.